Time;durP1;ratioP1;P1;durP2;ratioP2;P2;SDS_P1;SDS_P2;PMS_P1;PMS_P2;Temp;Humidity;BMP_temperature;BMP_pressure;BME280_temperature;BME280_humidity;BME280_pressure;Samples;Min_cycle;Max_cycle;Signal;HPM_P1;HPM_P2
2022/09/29 00:01:02;;;;;;;12.20;5.70;;;9.00;99.90;;;;;;5014587;28;20500;-47
2022/09/29 00:03:27;;;;;;;6.05;5.38;;;9.00;99.90;;;;;;5014544;28;20101;-51
2022/09/29 00:05:54;;;;;;;9.05;5.75;;;9.00;99.90;;;;;;5014461;28;20076;-44
2022/09/29 00:08:22;;;;;;;8.52;5.93;;;9.10;99.90;;;;;;5014100;28;20026;-44
2022/09/29 00:10:48;;;;;;;10.07;5.18;;;9.10;99.90;;;;;;5014410;28;20108;-44
2022/09/29 00:13:15;;;;;;;7.70;5.80;;;9.10;99.90;;;;;;5014106;28;20104;-47
2022/09/29 00:15:41;;;;;;;7.45;5.65;;;9.20;99.90;;;;;;5014378;28;20501;-46
2022/09/29 00:18:08;;;;;;;9.00;5.32;;;9.10;99.90;;;;;;5014311;28;20030;-44
2022/09/29 00:20:34;;;;;;;11.48;5.05;;;9.20;99.90;;;;;;5014016;28;20040;-45
2022/09/29 00:23:00;;;;;;;8.65;5.38;;;9.20;99.90;;;;;;5013861;28;20155;-54
2022/09/29 00:25:25;;;;;;;10.20;5.30;;;9.20;99.90;;;;;;5014058;28;20113;-43
2022/09/29 00:27:51;;;;;;;10.77;5.93;;;9.10;99.90;;;;;;5013720;28;20093;-46
2022/09/29 00:30:17;;;;;;;11.48;5.05;;;9.20;99.90;;;;;;5013957;28;20098;-43
2022/09/29 00:32:42;;;;;;;13.27;5.20;;;9.10;99.90;;;;;;5013792;28;20034;-45
2022/09/29 00:35:09;;;;;;;11.40;5.28;;;9.10;99.90;;;;;;5014014;28;20029;-44
2022/09/29 00:37:35;;;;;;;8.00;4.50;;;9.10;99.90;;;;;;5013737;28;20131;-50
2022/09/29 00:40:02;;;;;;;6.70;4.55;;;9.10;99.90;;;;;;5013860;28;20033;-50
2022/09/29 00:42:28;;;;;;;6.88;4.80;;;9.10;99.90;;;;;;5013579;28;20102;-49
2022/09/29 00:45:06;;;;;;;11.48;5.13;;;9.10;99.90;;;;;;5013352;28;20022;-47
2022/09/29 00:47:35;;;;;;;10.13;5.25;;;9.10;99.90;;;;;;5013038;28;20116;-48
2022/09/29 00:50:12;;;;;;;10.95;5.15;;;9.10;99.90;;;;;;5013445;28;20117;-44
2022/09/29 00:52:43;;;;;;;11.77;5.97;;;9.10;99.90;;;;;;5013424;28;20072;-46
2022/09/29 00:55:33;;;;;;;12.65;5.72;;;9.10;99.90;;;;;;5013748;28;20026;-48
2022/09/29 00:58:06;;;;;;;11.55;5.47;;;9.10;99.90;;;;;;5013469;28;20418;-45
2022/09/29 01:00:32;;;;;;;5.95;4.60;;;9.00;99.90;;;;;;5013511;28;20156;-46
2022/09/29 01:03:08;;;;;;;8.40;5.43;;;8.90;99.90;;;;;;5013308;28;20046;-45
2022/09/29 01:05:38;;;;;;;10.10;6.13;;;8.90;99.90;;;;;;5013549;28;20056;-45
2022/09/29 01:08:21;;;;;;;7.75;5.13;;;8.90;99.90;;;;;;5013485;28;20050;-45
2022/09/29 01:10:49;;;;;;;6.22;5.63;;;8.90;99.90;;;;;;5013411;28;20037;-49
2022/09/29 01:13:14;;;;;;;8.70;6.05;;;8.80;99.90;;;;;;5013186;28;20055;-49
2022/09/29 01:15:40;;;;;;;7.75;5.68;;;8.80;99.90;;;;;;5013357;28;20108;-45
2022/09/29 01:18:06;;;;;;;9.48;6.18;;;8.80;99.90;;;;;;5013341;28;20057;-46
2022/09/29 01:20:38;;;;;;;11.20;7.07;;;8.70;99.90;;;;;;5012739;28;20409;-46
2022/09/29 01:23:40;;;;;;;11.45;5.63;;;8.60;99.90;;;;;;5012955;28;20033;-47
2022/09/29 01:26:41;;;;;;;11.07;5.75;;;8.60;99.90;;;;;;5013238;28;20315;-47
2022/09/29 01:29:34;;;;;;;9.95;6.32;;;8.50;99.90;;;;;;5010922;28;20091;-46
2022/09/29 01:32:19;;;;;;;8.50;5.72;;;8.50;99.90;;;;;;5012528;28;20496;-44
2022/09/29 01:35:11;;;;;;;7.40;5.45;;;8.40;99.90;;;;;;5013046;28;20029;-44
2022/09/29 01:37:58;;;;;;;7.78;5.47;;;8.40;99.90;;;;;;5012996;28;20022;-46
2022/09/29 01:41:08;;;;;;;7.35;5.95;;;8.40;99.90;;;;;;5012697;28;20105;-44
2022/09/29 01:43:48;;;;;;;8.20;4.93;;;8.30;99.90;;;;;;5008644;28;20121;-46
2022/09/29 01:46:26;;;;;;;7.95;6.10;;;8.30;99.90;;;;;;5012751;28;20505;-45
2022/09/29 01:48:55;;;;;;;11.43;6.78;;;8.30;99.90;;;;;;5012288;28;20029;-45
2022/09/29 01:51:45;;;;;;;9.50;5.85;;;8.30;99.90;;;;;;5012598;28;20048;-46
2022/09/29 01:54:21;;;;;;;12.20;7.40;;;8.40;99.90;;;;;;5012485;28;20022;-45
2022/09/29 01:57:00;;;;;;;8.82;6.45;;;8.50;99.90;;;;;;5034043;23;20038;-40
2022/09/29 01:59:46;;;;;;;10.50;5.93;;;8.40;99.90;;;;;;5012635;28;20165;-48
2022/09/29 02:02:26;;;;;;;39.67;26.27;;;8.40;99.90;;;;;;5011999;28;20030;-46
2022/09/29 02:04:54;;;;;;;39.00;23.35;;;8.40;99.90;;;;;;5012412;28;20547;-48
2022/09/29 02:07:25;;;;;;;11.68;7.75;;;8.50;99.90;;;;;;5012160;28;20083;-46
2022/09/29 02:09:58;;;;;;;9.32;6.75;;;8.40;99.90;;;;;;5012255;28;20450;-48
2022/09/29 02:12:27;;;;;;;8.30;5.53;;;8.50;99.90;;;;;;5011995;28;20018;-47
2022/09/29 02:14:55;;;;;;;11.57;6.60;;;8.40;99.90;;;;;;5012305;28;20385;-43
2022/09/29 02:17:31;;;;;;;12.93;6.07;;;8.40;99.90;;;;;;5012324;28;20057;-43
2022/09/29 02:19:57;;;;;;;5.93;5.18;;;8.30;99.90;;;;;;5012148;28;20080;-44
2022/09/29 02:22:22;;;;;;;8.05;5.70;;;8.20;99.90;;;;;;5011813;28;20033;-43
2022/09/29 02:24:53;;;;;;;9.00;5.50;;;8.20;99.90;;;;;;5012080;28;20375;-47
2022/09/29 02:27:20;;;;;;;10.98;6.15;;;8.20;99.90;;;;;;5011307;28;20030;-45
2022/09/29 02:29:46;;;;;;;6.80;5.45;;;8.20;99.90;;;;;;5010717;28;20516;-43
2022/09/29 02:32:13;;;;;;;8.85;5.80;;;8.20;99.90;;;;;;5011505;28;20026;-41
2022/09/29 02:34:44;;;;;;;7.70;5.72;;;8.10;99.90;;;;;;5011910;28;20029;-42
2022/09/29 02:37:20;;;;;;;12.10;6.25;;;8.10;99.90;;;;;;5010461;28;20409;-44
2022/09/29 02:40:04;;;;;;;8.18;6.00;;;8.10;99.90;;;;;;5010516;28;20022;-42
2022/09/29 02:42:29;;;;;;;6.82;5.75;;;8.20;99.90;;;;;;5011580;28;20033;-45
2022/09/29 02:45:16;;;;;;;7.65;5.72;;;8.20;99.90;;;;;;5011815;28;20540;-44
2022/09/29 02:48:04;;;;;;;7.45;5.82;;;8.10;99.90;;;;;;5010126;28;20052;-48
2022/09/29 02:50:57;;;;;;;10.63;5.72;;;8.20;99.90;;;;;;4991575;28;20038;-41
2022/09/29 02:53:23;;;;;;;6.75;5.95;;;8.20;99.90;;;;;;5011455;28;20014;-45
2022/09/29 02:56:24;;;;;;;6.75;5.22;;;8.30;99.90;;;;;;5011552;28;20548;-44
2022/09/29 02:59:05;;;;;;;9.60;5.85;;;8.30;99.90;;;;;;5011657;28;20053;-47
2022/09/29 03:01:32;;;;;;;12.00;7.22;;;8.30;99.90;;;;;;5011730;28;20053;-47
2022/09/29 03:03:58;;;;;;;16.48;8.05;;;8.40;99.90;;;;;;5011367;28;20036;-46
2022/09/29 03:06:23;;;;;;;15.13;7.85;;;8.50;99.90;;;;;;5011509;28;20105;-45
2022/09/29 03:08:49;;;;;;;10.60;7.35;;;8.50;99.90;;;;;;5011757;28;20029;-46
2022/09/29 03:11:14;;;;;;;15.45;8.93;;;8.60;99.90;;;;;;5015650;28;20026;-46
2022/09/29 03:13:40;;;;;;;23.85;10.10;;;8.60;99.90;;;;;;5015195;28;20060;-45
2022/09/29 03:16:06;;;;;;;24.30;11.57;;;8.60;99.90;;;;;;5015478;28;20030;-44
2022/09/29 03:18:31;;;;;;;36.65;11.77;;;8.60;99.90;;;;;;5015216;28;20132;-45
2022/09/29 03:20:57;;;;;;;19.15;10.57;;;8.60;99.90;;;;;;5015898;28;20030;-46
2022/09/29 03:23:22;;;;;;;20.05;11.45;;;8.50;99.90;;;;;;5014939;28;20034;-43
2022/09/29 03:25:48;;;;;;;29.85;11.70;;;8.60;99.90;;;;;;5015275;28;20030;-45
2022/09/29 03:28:15;;;;;;;15.57;10.52;;;8.50;99.90;;;;;;5014397;28;20490;-44
2022/09/29 03:30:41;;;;;;;27.20;11.77;;;8.50;99.90;;;;;;5015259;28;20018;-43
2022/09/29 03:33:06;;;;;;;16.80;11.52;;;8.50;99.90;;;;;;5014864;28;20048;-46
2022/09/29 03:35:32;;;;;;;18.10;12.50;;;8.50;99.90;;;;;;5015081;28;20545;-44
2022/09/29 03:37:59;;;;;;;14.25;10.60;;;8.50;99.90;;;;;;5014942;28;20029;-44
2022/09/29 03:40:25;;;;;;;18.23;11.52;;;8.60;99.90;;;;;;5015108;28;20525;-49
2022/09/29 03:42:50;;;;;;;21.08;10.98;;;8.60;99.90;;;;;;5014781;28;20042;-46
2022/09/29 03:45:16;;;;;;;16.38;11.35;;;8.60;99.90;;;;;;5014910;28;20030;-44
2022/09/29 03:47:41;;;;;;;42.65;12.40;;;8.70;99.90;;;;;;5014677;28;20440;-44
2022/09/29 03:50:07;;;;;;;64.75;13.10;;;8.70;99.90;;;;;;5014629;28;20551;-44
2022/09/29 03:52:33;;;;;;;51.60;12.82;;;8.70;99.90;;;;;;5014886;28;20022;-45
2022/09/29 03:54:58;;;;;;;42.63;13.15;;;8.60;99.90;;;;;;5014971;28;20084;-49
2022/09/29 03:57:24;;;;;;;32.58;13.25;;;8.50;99.90;;;;;;5014415;28;20133;-45
2022/09/29 03:59:49;;;;;;;65.95;14.63;;;8.50;99.90;;;;;;5014607;28;20034;-45
2022/09/29 04:02:17;;;;;;;39.00;15.32;;;8.50;99.90;;;;;;5014320;28;20041;-45
2022/09/29 04:04:43;;;;;;;24.40;14.75;;;8.50;99.90;;;;;;5014517;28;20026;-46
2022/09/29 04:07:08;;;;;;;44.83;14.38;;;8.50;99.90;;;;;;5014572;28;20022;-45
2022/09/29 04:09:34;;;;;;;49.45;15.00;;;8.50;99.90;;;;;;5014748;28;20049;-44
2022/09/29 04:12:00;;;;;;;23.75;15.55;;;8.50;99.90;;;;;;5012980;28;20026;-42
2022/09/29 04:14:25;;;;;;;22.05;15.02;;;8.60;99.90;;;;;;5014462;28;20034;-45
2022/09/29 04:16:51;;;;;;;26.50;15.43;;;8.60;99.90;;;;;;5014463;28;20409;-45
2022/09/29 04:19:16;;;;;;;39.08;16.42;;;8.70;99.90;;;;;;5014553;28;20041;-44
2022/09/29 04:21:42;;;;;;;35.65;14.20;;;8.80;99.90;;;;;;5014181;28;20109;-48
2022/09/29 04:24:07;;;;;;;51.88;15.90;;;8.70;99.90;;;;;;5014188;28;20385;-43
2022/09/29 04:26:33;;;;;;;27.38;15.32;;;8.70;99.90;;;;;;5014332;28;20049;-44
2022/09/29 04:28:58;;;;;;;51.42;14.65;;;8.70;99.90;;;;;;5014182;28;20042;-44
2022/09/29 04:31:24;;;;;;;121.18;16.33;;;8.60;99.90;;;;;;5014487;28;20028;-45
2022/09/29 04:33:50;;;;;;;44.13;15.20;;;8.70;99.90;;;;;;5013732;28;20026;-47
2022/09/29 04:36:15;;;;;;;21.58;14.70;;;8.70;99.90;;;;;;5014180;28;20021;-47
2022/09/29 04:38:41;;;;;;;48.33;14.50;;;8.60;99.90;;;;;;5012539;28;20113;-46
2022/09/29 04:41:06;;;;;;;28.90;14.68;;;8.50;99.90;;;;;;5013857;28;20034;-46
2022/09/29 04:43:32;;;;;;;28.85;14.45;;;8.50;99.90;;;;;;5012263;28;20107;-45
2022/09/29 04:46:03;;;;;;;31.85;15.30;;;8.50;99.90;;;;;;5012384;28;20025;-46
2022/09/29 04:48:28;;;;;;;35.78;14.25;;;8.50;99.90;;;;;;5013651;28;20140;-49
2022/09/29 04:50:54;;;;;;;25.98;14.15;;;8.50;99.90;;;;;;5013713;28;20053;-43
2022/09/29 04:53:19;;;;;;;31.45;14.75;;;8.50;99.90;;;;;;5011953;28;20045;-43
2022/09/29 04:55:45;;;;;;;47.22;14.55;;;8.50;99.90;;;;;;5013644;28;20529;-47
2022/09/29 04:58:10;;;;;;;54.22;15.93;;;8.50;99.90;;;;;;5012443;28;20033;-41
2022/09/29 05:00:36;;;;;;;34.15;14.40;;;8.50;99.90;;;;;;5012747;28;20025;-48
2022/09/29 05:03:02;;;;;;;90.05;16.63;;;8.40;99.90;;;;;;5012140;28;20520;-43
2022/09/29 05:05:28;;;;;;;38.15;14.85;;;8.40;99.90;;;;;;5012498;28;20052;-44
2022/09/29 05:07:53;;;;;;;64.40;16.05;;;8.40;99.90;;;;;;5012286;28;20057;-44
2022/09/29 05:10:19;;;;;;;33.25;14.90;;;8.40;99.90;;;;;;5012406;28;20056;-44
2022/09/29 05:12:49;;;;;;;54.97;14.32;;;8.40;99.90;;;;;;5012095;28;20022;-43
2022/09/29 05:15:16;;;;;;;46.40;15.25;;;8.30;99.90;;;;;;5012398;28;20439;-49
2022/09/29 05:17:41;;;;;;;76.78;15.43;;;8.30;99.90;;;;;;5012561;28;20026;-47
2022/09/29 05:20:07;;;;;;;37.55;16.17;;;8.30;99.90;;;;;;5012244;28;20022;-48
2022/09/29 05:22:32;;;;;;;50.15;16.20;;;8.30;99.90;;;;;;5011835;28;20346;-51
2022/09/29 05:24:58;;;;;;;31.95;16.13;;;8.40;99.90;;;;;;5012132;28;20034;-44
2022/09/29 05:27:23;;;;;;;27.58;15.32;;;8.40;99.90;;;;;;5011341;28;20038;-44
2022/09/29 05:29:49;;;;;;;34.03;15.43;;;8.40;99.90;;;;;;5011925;28;20426;-49
2022/09/29 05:32:15;;;;;;;26.63;14.68;;;8.50;99.90;;;;;;5011066;28;20022;-45
2022/09/29 05:34:40;;;;;;;45.42;14.88;;;8.50;99.90;;;;;;5012040;28;20397;-47
2022/09/29 05:37:06;;;;;;;18.05;14.27;;;8.50;99.90;;;;;;5011805;28;20512;-45
2022/09/29 05:39:33;;;;;;;21.15;14.15;;;8.40;99.90;;;;;;5011692;28;20119;-44
2022/09/29 05:42:05;;;;;;;69.97;13.57;;;8.40;99.90;;;;;;5011596;28;20137;-44
2022/09/29 05:44:30;;;;;;;22.80;13.35;;;8.50;99.90;;;;;;5011730;28;20452;-43
2022/09/29 05:46:56;;;;;;;21.58;12.68;;;8.40;99.90;;;;;;5011971;28;20129;-44
2022/09/29 05:49:22;;;;;;;19.63;12.43;;;8.30;99.90;;;;;;5010306;28;20084;-44
2022/09/29 05:51:47;;;;;;;22.80;14.07;;;8.30;99.90;;;;;;5012122;28;20040;-43
2022/09/29 05:54:13;;;;;;;24.88;13.80;;;8.30;99.90;;;;;;5011262;28;20461;-44
2022/09/29 05:56:38;;;;;;;36.22;13.82;;;8.30;99.90;;;;;;4976015;28;1034217;-49
2022/09/29 05:59:04;;;;;;;20.65;13.65;;;8.30;99.90;;;;;;5012342;28;20107;-44
2022/09/29 06:01:31;;;;;;;20.15;13.30;;;8.30;99.90;;;;;;5012429;28;20026;-46
2022/09/29 06:03:57;;;;;;;27.10;12.95;;;8.40;99.90;;;;;;5011984;28;20037;-46
2022/09/29 06:06:26;;;;;;;19.15;13.55;;;8.50;99.90;;;;;;5012089;28;20486;-45
2022/09/29 06:08:52;;;;;;;19.20;13.40;;;8.50;99.90;;;;;;5012023;28;20034;-45
2022/09/29 06:11:21;;;;;;;21.67;13.40;;;8.50;99.90;;;;;;5012236;28;20474;-42
2022/09/29 06:13:48;;;;;;;18.17;13.63;;;8.50;99.90;;;;;;5011839;28;20032;-44
2022/09/29 06:16:16;;;;;;;17.70;12.75;;;8.70;99.90;;;;;;5012160;28;20026;-44
2022/09/29 06:18:41;;;;;;;16.10;12.63;;;8.70;99.90;;;;;;5011972;28;20025;-45
2022/09/29 06:21:13;;;;;;;53.53;14.35;;;8.70;99.90;;;;;;5012057;28;20030;-42
2022/09/29 06:23:38;;;;;;;24.20;13.38;;;8.80;99.90;;;;;;5011706;28;20026;-45
2022/09/29 06:26:07;;;;;;;19.95;13.50;;;8.90;99.90;;;;;;5012036;28;20022;-45
2022/09/29 06:28:33;;;;;;;46.78;13.15;;;8.90;99.90;;;;;;5010254;28;20112;-44
2022/09/29 06:31:04;;;;;;;17.92;13.57;;;8.90;99.90;;;;;;5011833;28;20475;-45
2022/09/29 06:33:31;;;;;;;34.05;14.07;;;8.90;99.90;;;;;;5011585;28;20049;-47
2022/09/29 06:38:42;;;;;;;26.95;13.73;;;8.80;99.90;;;;;;5012072;28;20113;-46
2022/09/29 06:41:08;;;;;;;29.65;14.68;;;8.80;99.90;;;;;;5011717;28;20053;-45
2022/09/29 06:43:34;;;;;;;31.42;14.65;;;8.80;99.90;;;;;;5011387;28;20030;-43
2022/09/29 06:45:59;;;;;;;24.10;14.50;;;8.90;99.90;;;;;;5011490;28;20477;-47
2022/09/29 06:48:25;;;;;;;23.60;14.32;;;9.10;99.90;;;;;;5011563;28;20036;-45
2022/09/29 06:50:51;;;;;;;19.85;13.20;;;8.90;99.90;;;;;;5010338;28;20026;-44
2022/09/29 06:53:16;;;;;;;21.20;13.45;;;8.90;99.90;;;;;;5011403;28;20097;-47
2022/09/29 06:55:42;;;;;;;23.27;14.82;;;8.90;99.90;;;;;;5011364;28;20061;-45
2022/09/29 06:58:08;;;;;;;24.30;14.45;;;8.90;99.90;;;;;;5011367;28;20449;-47
2022/09/29 07:00:34;;;;;;;23.08;14.40;;;8.90;99.90;;;;;;5011671;28;20502;-44
2022/09/29 07:03:00;;;;;;;22.30;15.05;;;9.00;99.90;;;;;;5011499;28;20423;-43
2022/09/29 07:05:25;;;;;;;39.67;14.98;;;9.00;99.90;;;;;;5011534;28;20508;-45
2022/09/29 07:07:51;;;;;;;31.48;14.70;;;9.00;99.90;;;;;;5011390;28;20030;-49
2022/09/29 07:10:17;;;;;;;30.48;14.90;;;9.00;99.90;;;;;;5011270;28;20022;-45
2022/09/29 07:12:46;;;;;;;49.80;15.68;;;8.90;99.90;;;;;;5011483;28;20363;-46
2022/09/29 07:15:12;;;;;;;44.83;15.20;;;8.80;99.90;;;;;;5011422;28;20015;-45
2022/09/29 07:17:38;;;;;;;32.05;15.88;;;8.70;99.90;;;;;;5009983;28;20469;-44
2022/09/29 07:20:04;;;;;;;25.33;15.60;;;8.60;99.90;;;;;;5011302;28;20129;-44
2022/09/29 07:22:29;;;;;;;31.92;15.88;;;8.60;99.90;;;;;;5011028;28;20033;-43
2022/09/29 07:24:55;;;;;;;18.77;12.98;;;8.50;99.90;;;;;;5011262;28;20056;-46
2022/09/29 07:27:23;;;;;;;22.67;14.90;;;8.60;99.90;;;;;;5010724;28;20305;-44
2022/09/29 07:29:49;;;;;;;21.35;16.17;;;8.60;99.90;;;;;;5011408;28;20053;-43
2022/09/29 07:32:15;;;;;;;27.38;16.92;;;8.60;99.90;;;;;;5011151;28;20390;-48
2022/09/29 07:34:40;;;;;;;31.00;16.30;;;8.70;99.90;;;;;;5009863;28;20029;-44
2022/09/29 07:37:06;;;;;;;33.85;16.08;;;8.70;99.90;;;;;;5011160;28;20068;-43
2022/09/29 07:39:31;;;;;;;26.80;16.52;;;8.70;99.90;;;;;;5011016;28;20022;-45
2022/09/29 07:41:57;;;;;;;30.65;18.08;;;8.70;99.90;;;;;;5010916;28;20037;-44
2022/09/29 07:44:23;;;;;;;28.80;17.52;;;8.70;99.90;;;;;;5011341;28;20021;-45
2022/09/29 07:46:49;;;;;;;28.95;17.95;;;8.70;99.90;;;;;;5010986;28;20585;-41
2022/09/29 07:49:15;;;;;;;25.85;16.45;;;8.70;99.90;;;;;;5011009;28;20021;-45
2022/09/29 07:51:40;;;;;;;23.52;16.27;;;8.70;99.90;;;;;;5010917;28;20101;-41
2022/09/29 07:54:06;;;;;;;26.30;16.27;;;8.80;99.90;;;;;;5010785;28;20109;-43
2022/09/29 07:59:01;;;;;;;25.63;16.20;;;8.90;99.90;;;;;;4990517;28;20058;-46
2022/09/29 08:01:26;;;;;;;29.08;17.80;;;8.90;99.90;;;;;;5010318;28;20022;-46
2022/09/29 08:03:54;;;;;;;34.05;15.82;;;8.90;99.90;;;;;;4995126;28;20360;-46
2022/09/29 08:06:20;;;;;;;28.85;15.88;;;8.80;99.90;;;;;;4995286;28;20427;-44
2022/09/29 08:08:46;;;;;;;28.98;16.88;;;8.80;99.90;;;;;;4994804;28;20112;-47
2022/09/29 08:11:16;;;;;;;27.27;16.38;;;8.80;99.90;;;;;;4994842;28;20383;-43
2022/09/29 08:13:42;;;;;;;32.72;17.77;;;8.90;99.90;;;;;;4994434;28;20123;-45
2022/09/29 08:16:11;;;;;;;23.27;15.90;;;9.00;99.90;;;;;;4994817;28;20095;-49
2022/09/29 08:18:37;;;;;;;24.75;16.27;;;9.20;99.90;;;;;;4994734;28;20111;-47
2022/09/29 08:21:04;;;;;;;26.83;16.73;;;9.30;99.90;;;;;;4994833;28;20035;-44
2022/09/29 08:23:35;;;;;;;40.35;16.27;;;9.30;99.90;;;;;;4994437;28;20030;-46
2022/09/29 08:26:02;;;;;;;25.73;17.02;;;9.40;99.90;;;;;;4994637;28;20110;-47
2022/09/29 08:28:32;;;;;;;24.98;15.88;;;9.30;99.90;;;;;;4994191;28;20560;-45
2022/09/29 08:31:02;;;;;;;31.08;17.98;;;9.40;99.90;;;;;;4994631;28;20026;-45
2022/09/29 08:33:27;;;;;;;25.75;16.70;;;9.40;99.90;;;;;;4994419;28;20023;-44
2022/09/29 08:35:57;;;;;;;33.20;19.27;;;9.50;99.90;;;;;;4994811;28;20023;-45
2022/09/29 08:38:24;;;;;;;24.08;15.68;;;9.50;99.90;;;;;;4994147;28;20451;-45
2022/09/29 08:40:50;;;;;;;26.88;16.45;;;9.50;99.90;;;;;;4994503;28;20026;-46
2022/09/29 08:43:25;;;;;;;28.80;16.45;;;9.60;99.90;;;;;;4992779;28;20442;-46
2022/09/29 08:45:59;;;;;;;26.88;15.98;;;9.60;99.90;;;;;;4994277;28;20518;-48
2022/09/29 08:48:30;;;;;;;27.27;17.38;;;9.70;99.90;;;;;;4994180;28;20160;-48
2022/09/29 08:51:03;;;;;;;21.48;15.18;;;9.80;99.90;;;;;;4994148;28;20505;-49
2022/09/29 08:53:32;;;;;;;31.38;16.38;;;9.80;99.90;;;;;;4993830;28;20054;-49
2022/09/29 08:56:15;;;;;;;36.33;17.48;;;9.70;99.90;;;;;;4994142;28;20585;-42
2022/09/29 08:58:41;;;;;;;28.10;16.80;;;9.70;99.90;;;;;;4993963;28;20133;-47
2022/09/29 09:01:09;;;;;;;28.65;18.42;;;9.80;99.90;;;;;;4994091;28;20101;-44
2022/09/29 09:03:57;;;;;;;27.80;17.10;;;9.80;99.90;;;;;;4993649;28;20114;-45
2022/09/29 09:06:27;;;;;;;25.27;16.73;;;9.90;99.90;;;;;;4993091;28;20038;-47
2022/09/29 09:08:58;;;;;;;30.00;17.25;;;10.00;99.90;;;;;;4993523;28;20026;-46
2022/09/29 09:11:39;;;;;;;26.00;17.10;;;9.90;99.90;;;;;;4993864;28;20066;-48
2022/09/29 09:14:24;;;;;;;28.15;18.52;;;9.80;99.90;;;;;;4993951;28;20085;-46
2022/09/29 09:17:22;;;;;;;23.95;16.00;;;9.80;99.90;;;;;;4993845;28;20034;-44
2022/09/29 09:19:54;;;;;;;25.20;16.42;;;9.70;99.90;;;;;;4993790;28;20540;-45
2022/09/29 09:22:56;;;;;;;23.60;15.75;;;9.70;99.90;;;;;;4993409;28;20023;-49
2022/09/29 09:25:38;;;;;;;27.45;16.73;;;9.80;99.90;;;;;;4981051;28;20026;-45
2022/09/29 09:28:25;;;;;;;27.38;16.25;;;9.80;99.90;;;;;;4993238;28;20030;-46
2022/09/29 09:30:54;;;;;;;22.73;15.27;;;9.80;99.90;;;;;;4993611;28;20030;-46
2022/09/29 09:33:58;;;;;;;26.15;15.63;;;9.90;99.90;;;;;;4993047;28;20044;-45
2022/09/29 09:36:47;;;;;;;25.30;16.50;;;10.10;99.90;;;;;;4972451;28;20049;-46
2022/09/29 09:39:18;;;;;;;25.42;15.93;;;10.20;99.90;;;;;;4993382;28;20042;-46
2022/09/29 09:41:48;;;;;;;26.73;17.85;;;10.30;99.90;;;;;;4993256;28;20027;-56
2022/09/29 09:44:18;;;;;;;24.55;15.55;;;10.30;99.90;;;;;;4993433;28;20065;-46
2022/09/29 09:46:55;;;;;;;26.35;17.00;;;10.30;99.90;;;;;;4991714;28;20177;-46
2022/09/29 09:49:31;;;;;;;30.58;17.23;;;10.30;99.90;;;;;;4993110;28;20216;-45
2022/09/29 09:52:10;;;;;;;27.95;16.90;;;10.30;99.90;;;;;;4992765;28;20029;-44
2022/09/29 09:54:40;;;;;;;29.17;18.08;;;10.30;99.90;;;;;;4993143;28;20438;-44
2022/09/29 09:57:16;;;;;;;27.65;16.77;;;10.50;99.90;;;;;;4993098;28;20026;-44
2022/09/29 09:59:56;;;;;;;24.67;16.40;;;10.40;99.90;;;;;;4993338;28;20062;-45
2022/09/29 10:02:23;;;;;;;31.33;18.70;;;10.30;99.90;;;;;;4992772;28;20025;-45
2022/09/29 10:04:51;;;;;;;30.25;18.13;;;10.20;99.90;;;;;;4993044;28;20018;-45
2022/09/29 10:07:21;;;;;;;32.88;17.52;;;10.10;99.90;;;;;;4992932;28;20090;-46
2022/09/29 10:09:47;;;;;;;28.80;19.00;;;10.00;99.90;;;;;;4993570;28;20482;-47
2022/09/29 10:12:18;;;;;;;29.20;17.38;;;10.00;99.90;;;;;;4992665;28;20037;-48
2022/09/29 10:14:56;;;;;;;30.85;18.40;;;10.00;99.90;;;;;;4992787;28;20018;-48
2022/09/29 10:17:26;;;;;;;29.60;18.23;;;10.00;99.90;;;;;;4992431;28;20489;-46
2022/09/29 10:20:04;;;;;;;30.75;18.45;;;10.10;99.90;;;;;;4992627;28;20049;-44
2022/09/29 10:22:30;;;;;;;25.73;16.65;;;10.10;99.90;;;;;;4992384;28;20398;-46
2022/09/29 10:25:13;;;;;;;31.83;18.08;;;10.20;99.90;;;;;;4992421;28;20033;-48
2022/09/29 10:27:41;;;;;;;29.00;17.85;;;10.30;99.90;;;;;;4991911;28;20034;-46
2022/09/29 10:30:23;;;;;;;60.30;35.45;;;10.40;99.90;;;;;;4992604;28;20037;-45
2022/09/29 10:32:55;;;;;;;300.48;188.20;;;10.50;99.90;;;;;;4991992;28;20177;-44
2022/09/29 10:35:30;;;;;;;42.13;26.42;;;10.60;99.90;;;;;;4992368;28;20049;-47
2022/09/29 10:38:01;;;;;;;28.65;17.15;;;10.70;99.90;;;;;;4992310;28;20442;-44
2022/09/29 10:40:27;;;;;;;25.92;16.33;;;10.80;99.90;;;;;;4991143;28;20034;-45
2022/09/29 10:42:55;;;;;;;28.70;16.73;;;10.90;99.90;;;;;;4992229;28;20389;-46
2022/09/29 10:45:28;;;;;;;22.90;15.95;;;11.00;99.90;;;;;;4992389;28;20040;-46
2022/09/29 10:47:57;;;;;;;26.50;16.55;;;11.20;99.90;;;;;;4991985;28;20026;-45
2022/09/29 10:50:28;;;;;;;26.52;17.67;;;11.30;99.90;;;;;;4991845;28;20023;-45
2022/09/29 10:53:03;;;;;;;32.47;16.77;;;11.30;99.90;;;;;;4991821;28;20026;-48
2022/09/29 10:55:32;;;;;;;26.23;18.02;;;11.40;99.90;;;;;;4992038;28;20042;-44
2022/09/29 10:58:15;;;;;;;24.25;16.45;;;11.50;99.90;;;;;;4991655;28;20081;-44
2022/09/29 11:00:41;;;;;;;25.48;17.13;;;11.60;99.90;;;;;;4991862;28;20033;-44
2022/09/29 11:03:19;;;;;;;24.15;16.27;;;11.60;99.90;;;;;;4990479;28;20556;-45
2022/09/29 11:06:10;;;;;;;26.90;16.70;;;11.70;99.90;;;;;;4991902;28;20026;-45
2022/09/29 11:09:02;;;;;;;20.92;14.80;;;11.70;99.90;;;;;;4990328;28;20034;-49
2022/09/29 11:11:35;;;;;;;24.27;15.38;;;11.70;99.90;;;;;;4991911;28;20494;-48
2022/09/29 11:14:01;;;;;;;25.67;15.40;;;11.80;99.90;;;;;;4991567;28;20033;-47
2022/09/29 11:16:29;;;;;;;24.27;16.08;;;11.90;99.90;;;;;;4991657;28;20026;-47
2022/09/29 11:19:08;;;;;;;23.08;16.48;;;12.00;99.90;;;;;;4991618;28;20441;-45
2022/09/29 11:21:45;;;;;;;21.73;15.45;;;12.10;99.90;;;;;;4991851;28;20027;-45
2022/09/29 11:24:32;;;;;;;22.77;15.55;;;12.30;99.90;;;;;;4991548;28;20034;-45
2022/09/29 11:27:15;;;;;;;26.20;16.92;;;12.30;99.90;;;;;;4991747;28;20031;-45
2022/09/29 11:30:02;;;;;;;27.63;14.90;;;12.30;99.90;;;;;;4992112;28;20026;-48
2022/09/29 11:32:37;;;;;;;22.13;15.50;;;12.30;99.90;;;;;;4995278;28;20085;-44
2022/09/29 11:35:15;;;;;;;22.20;15.70;;;12.30;99.90;;;;;;4995508;28;20041;-46
2022/09/29 11:37:58;;;;;;;30.65;15.95;;;12.30;99.90;;;;;;4995256;28;20431;-49
2022/09/29 11:40:39;;;;;;;60.85;40.15;;;12.30;99.90;;;;;;4994136;28;20053;-47
2022/09/29 11:43:25;;;;;;;33.15;22.27;;;12.40;99.90;;;;;;4995104;28;20026;-46
2022/09/29 11:46:09;;;;;;;22.67;15.02;;;12.50;99.90;;;;;;4995418;28;20023;-45
2022/09/29 11:48:43;;;;;;;24.10;15.25;;;12.50;99.90;;;;;;4995266;28;20032;-48
2022/09/29 11:51:09;;;;;;;21.67;14.65;;;12.50;99.90;;;;;;4995507;28;20105;-45
2022/09/29 11:54:13;;;;;;;27.85;15.25;;;12.50;99.90;;;;;;4994928;28;20407;-45
2022/09/29 11:56:50;;;;;;;21.88;14.57;;;12.60;99.90;;;;;;4995047;28;20102;-47
2022/09/29 11:59:42;;;;;;;23.33;16.17;;;12.60;99.90;;;;;;4995200;28;20393;-45
2022/09/29 12:02:35;;;;;;;33.50;19.10;;;12.60;99.90;;;;;;4995145;28;20371;-46
2022/09/29 12:05:16;;;;;;;24.27;15.93;;;12.60;99.90;;;;;;4995084;28;20033;-45
2022/09/29 12:07:56;;;;;;;19.65;14.50;;;12.70;99.90;;;;;;4995090;28;20026;-45
2022/09/29 12:10:33;;;;;;;17.42;12.13;;;12.70;99.90;;;;;;4994983;28;20022;-45
2022/09/29 12:13:21;;;;;;;19.30;12.63;;;12.80;99.90;;;;;;4994690;28;20057;-45
2022/09/29 12:16:07;;;;;;;18.05;12.60;;;12.80;99.90;;;;;;4994856;28;20081;-45
2022/09/29 12:18:38;;;;;;;18.75;11.90;;;12.90;99.90;;;;;;4994747;28;20085;-44
2022/09/29 12:21:07;;;;;;;18.08;12.50;;;13.00;99.90;;;;;;4994817;28;20041;-47
2022/09/29 12:23:36;;;;;;;15.68;10.40;;;13.00;99.90;;;;;;4994533;28;20023;-44
2022/09/29 12:26:10;;;;;;;17.05;11.60;;;13.20;99.90;;;;;;4994650;28;20027;-44
2022/09/29 12:28:58;;;;;;;17.98;12.00;;;13.10;99.90;;;;;;4994002;28;20113;-44
2022/09/29 12:31:38;;;;;;;20.55;12.48;;;13.00;99.90;;;;;;4994983;28;20034;-42
2022/09/29 12:34:21;;;;;;;16.30;11.52;;;13.00;99.90;;;;;;4994169;28;20121;-48
2022/09/29 12:37:01;;;;;;;20.10;12.00;;;13.00;99.90;;;;;;4994415;28;20025;-46
2022/09/29 12:39:45;;;;;;;16.13;11.32;;;13.10;99.90;;;;;;4994227;28;20027;-48
2022/09/29 12:42:29;;;;;;;21.05;11.77;;;13.30;99.90;;;;;;4994072;28;20076;-44
2022/09/29 12:45:09;;;;;;;15.85;11.35;;;13.30;99.90;;;;;;4994313;28;20023;-44
2022/09/29 12:47:51;;;;;;;19.98;11.50;;;13.40;99.90;;;;;;4994302;28;20022;-44
2022/09/29 12:50:41;;;;;;;21.80;10.57;;;13.50;99.90;;;;;;4994264;28;20077;-45
2022/09/29 12:53:18;;;;;;;14.18;10.73;;;13.60;99.90;;;;;;4993990;28;20104;-44
2022/09/29 12:55:58;;;;;;;22.58;13.13;;;13.60;99.90;;;;;;4994301;28;20442;-43
2022/09/29 12:58:54;;;;;;;20.30;11.43;;;13.50;99.90;;;;;;4993955;28;20049;-44
2022/09/29 13:01:28;;;;;;;17.00;11.25;;;13.50;99.90;;;;;;4994312;28;20037;-44
2022/09/29 13:04:18;;;;;;;18.83;11.43;;;13.50;99.90;;;;;;4994080;28;20060;-42
2022/09/29 13:07:19;;;;;;;13.68;9.40;;;13.50;99.90;;;;;;4993883;28;20498;-46